createdAt,value
2023-03-27T00:00:00.666Z,100.00
2023-03-27T00:02:37.106Z,100.00
2023-03-27T00:05:13.189Z,100.00
2023-03-27T00:07:45.364Z,100.00
2023-03-27T00:10:19.046Z,100.00
2023-03-27T00:12:48.140Z,100.00
2023-03-27T00:15:25.995Z,100.00
2023-03-27T00:17:58.955Z,100.00
2023-03-27T00:20:32.448Z,100.00
2023-03-27T00:23:09.690Z,100.00
2023-03-27T00:25:52.601Z,100.00
2023-03-27T00:28:28.502Z,100.00
2023-03-27T00:31:12.819Z,100.00
2023-03-27T00:33:48.408Z,100.00
2023-03-27T00:36:18.046Z,100.00
2023-03-27T00:38:46.191Z,100.00
2023-03-27T00:41:19.683Z,100.00
2023-03-27T00:43:52.630Z,100.00
2023-03-27T00:46:43.523Z,100.00
2023-03-27T00:49:41.527Z,100.00
2023-03-27T00:52:15.234Z,100.00
2023-03-27T00:54:48.768Z,100.00
2023-03-27T00:57:24.660Z,100.00
2023-03-27T00:59:58.247Z,100.00
2023-03-27T01:02:31.468Z,100.00
2023-03-27T01:04:59.935Z,100.00
2023-03-27T01:07:31.660Z,100.00
2023-03-27T01:10:02.840Z,100.00
2023-03-27T01:12:43.812Z,100.00
2023-03-27T01:15:45.391Z,100.00
2023-03-27T01:18:44.522Z,100.00
2023-03-27T01:21:42.525Z,100.00
2023-03-27T01:24:47.915Z,100.00
2023-03-27T01:27:47.442Z,100.00
2023-03-27T01:30:55.495Z,100.00
2023-03-27T01:33:53.747Z,100.00
2023-03-27T01:36:46.926Z,100.00
2023-03-27T01:39:34.863Z,100.00
2023-03-27T01:42:56.868Z,100.00
2023-03-27T01:45:41.015Z,100.00
2023-03-27T01:48:32.795Z,100.00
2023-03-27T01:51:40.049Z,100.00
2023-03-27T01:54:31.990Z,100.00
2023-03-27T01:57:30.244Z,100.00
2023-03-27T02:00:20.399Z,100.00
2023-03-27T02:03:04.046Z,100.00
2023-03-27T02:05:50.410Z,100.00
2023-03-27T02:08:42.040Z,100.00
2023-03-27T02:11:33.840Z,100.00
2023-03-27T02:14:20.484Z,100.00
2023-03-27T02:17:14.527Z,100.00
2023-03-27T02:19:57.793Z,100.00
2023-03-27T02:22:37.520Z,100.00
2023-03-27T02:25:56.533Z,100.00
2023-03-27T02:28:58.080Z,100.00
2023-03-27T02:31:51.058Z,100.00
2023-03-27T02:34:31.157Z,100.00
2023-03-27T02:37:36.076Z,100.00
2023-03-27T02:40:57.356Z,100.00
2023-03-27T02:44:15.260Z,100.00
2023-03-27T02:47:17.857Z,100.00
2023-03-27T02:49:54.657Z,100.00
2023-03-27T02:52:51.268Z,100.00
2023-03-27T02:55:41.429Z,100.00
2023-03-27T02:58:22.950Z,100.00
2023-03-27T03:01:06.490Z,100.00
2023-03-27T03:03:56.038Z,100.00
2023-03-27T03:06:44.745Z,100.00
2023-03-27T03:09:15.358Z,100.00
2023-03-27T03:11:54.665Z,100.00
2023-03-27T03:14:35.895Z,100.00
2023-03-27T03:17:13.773Z,100.00
2023-03-27T03:19:52.274Z,100.00
2023-03-27T03:22:21.652Z,100.00
2023-03-27T03:24:55.398Z,100.00
2023-03-27T03:27:36.074Z,100.00
2023-03-27T03:30:16.699Z,100.00
2023-03-27T03:33:17.875Z,100.00
2023-03-27T03:35:54.241Z,100.00
2023-03-27T03:38:42.783Z,100.00
2023-03-27T03:41:18.321Z,100.00
2023-03-27T03:43:58.434Z,100.00
2023-03-27T03:46:29.719Z,100.00
2023-03-27T03:49:09.072Z,100.00
2023-03-27T03:51:40.118Z,100.00
2023-03-27T03:54:10.252Z,100.00
2023-03-27T03:56:44.915Z,100.00
2023-03-27T03:59:25.416Z,100.00
2023-03-27T04:02:31.461Z,100.00
2023-03-27T04:05:14.417Z,100.00
2023-03-27T04:07:46.886Z,100.00
2023-03-27T04:10:26.624Z,100.00
2023-03-27T04:13:02.246Z,100.00
2023-03-27T04:15:50.075Z,100.00
2023-03-27T04:18:30.649Z,100.00
2023-03-27T04:21:08.577Z,100.00
2023-03-27T04:23:42.396Z,100.00
2023-03-27T04:29:45.468Z,100.00
2023-03-27T04:32:43.867Z,100.00
2023-03-27T04:35:33.710Z,100.00
2023-03-27T04:38:20.220Z,100.00
2023-03-27T04:41:08.308Z,100.00
2023-03-27T04:43:40.424Z,100.00
2023-03-27T04:46:22.515Z,100.00
2023-03-27T04:49:07.164Z,100.00
2023-03-27T04:52:06.745Z,100.00
2023-03-27T04:54:35.410Z,100.00
2023-03-27T04:57:13.639Z,100.00
2023-03-27T04:59:53.675Z,100.00
2023-03-27T05:02:46.101Z,100.00
2023-03-27T05:05:25.522Z,100.00
2023-03-27T05:07:58.213Z,100.00
2023-03-27T05:10:32.920Z,100.00
2023-03-27T05:13:06.110Z,100.00
2023-03-27T05:15:42.014Z,100.00
2023-03-27T05:18:19.389Z,100.00
2023-03-27T05:21:01.919Z,100.00
2023-03-27T05:23:44.852Z,100.00
2023-03-27T05:26:19.868Z,100.00
2023-03-27T05:28:54.618Z,100.00
2023-03-27T05:31:31.032Z,100.00
2023-03-27T05:34:24.558Z,100.00
2023-03-27T05:36:59.442Z,100.00
2023-03-27T05:39:31.825Z,100.00
2023-03-27T05:42:03.591Z,100.00
2023-03-27T05:44:39.680Z,100.00
2023-03-27T05:47:10.743Z,100.00
2023-03-27T05:49:57.537Z,100.00
2023-03-27T05:52:33.447Z,100.00
2023-03-27T05:57:49.208Z,100.00
2023-03-27T06:00:27.268Z,100.00
2023-03-27T06:03:02.164Z,100.00
2023-03-27T06:06:00.284Z,100.00
2023-03-27T06:08:35.332Z,100.00
2023-03-27T06:11:18.670Z,100.00
2023-03-27T06:13:48.139Z,100.00
2023-03-27T06:16:29.716Z,100.00
2023-03-27T06:19:24.753Z,100.00
2023-03-27T06:22:09.628Z,100.00
2023-03-27T06:25:00.527Z,100.00
2023-03-27T06:27:32.171Z,100.00
2023-03-27T06:30:08.647Z,100.00
2023-03-27T06:32:39.786Z,100.00
2023-03-27T06:35:31.974Z,100.00
2023-03-27T06:38:21.963Z,100.00
2023-03-27T06:41:02.959Z,100.00
2023-03-27T06:44:13.489Z,100.00
2023-03-27T06:47:04.508Z,100.00
2023-03-27T06:49:56.653Z,100.00
2023-03-27T06:52:25.424Z,100.00
2023-03-27T06:55:06.359Z,100.00
2023-03-27T06:57:54.688Z,100.00
2023-03-27T07:00:28.963Z,100.00
2023-03-27T07:03:34.418Z,100.00
2023-03-27T07:06:41.139Z,100.00
2023-03-27T07:09:14.636Z,100.00
2023-03-27T07:11:58.951Z,100.00
2023-03-27T07:14:26.627Z,100.00
2023-03-27T07:16:56.092Z,100.00
2023-03-27T07:19:35.550Z,100.00
2023-03-27T07:22:14.819Z,100.00
2023-03-27T07:24:48.611Z,100.00
2023-03-27T07:27:23.003Z,100.00
2023-03-27T07:32:44.471Z,100.00
2023-03-27T07:35:15.559Z,100.00
2023-03-27T07:38:18.875Z,100.00
2023-03-27T07:41:12.491Z,100.00
2023-03-27T07:43:58.333Z,100.00
2023-03-27T07:46:33.173Z,100.00
2023-03-27T07:49:11.729Z,100.00
2023-03-27T07:51:44.671Z,100.00
2023-03-27T07:54:15.476Z,100.00
2023-03-27T07:57:02.404Z,100.00
2023-03-27T08:00:14.730Z,100.00
2023-03-27T08:02:49.368Z,100.00
2023-03-27T08:05:19.061Z,100.00
2023-03-27T08:08:02.081Z,100.00
2023-03-27T08:11:09.653Z,100.00
2023-03-27T08:13:44.385Z,100.00
2023-03-27T08:16:20.235Z,100.00
2023-03-27T08:21:59.288Z,100.00
2023-03-27T08:24:29.915Z,100.00
2023-03-27T08:27:20.548Z,100.00
2023-03-27T08:29:51.072Z,100.00
2023-03-27T08:32:22.469Z,100.00
2023-03-27T08:34:52.845Z,100.00
2023-03-27T08:37:27.473Z,100.00
2023-03-27T08:40:36.919Z,100.00
2023-03-27T08:43:51.119Z,100.00
2023-03-27T08:46:49.812Z,100.00
2023-03-27T08:49:23.016Z,100.00
2023-03-27T08:52:24.812Z,100.00
2023-03-27T08:55:45.455Z,100.00
2023-03-27T08:58:22.108Z,100.00
2023-03-27T09:01:14.926Z,100.00
2023-03-27T09:04:05.837Z,100.00
2023-03-27T09:07:17.904Z,100.00
2023-03-27T09:10:37.936Z,100.00
2023-03-27T09:13:51.302Z,100.00
2023-03-27T09:16:51.633Z,100.00
2023-03-27T09:19:46.727Z,100.00
2023-03-27T09:22:32.334Z,100.00
2023-03-27T09:25:32.597Z,100.00
2023-03-27T09:28:51.844Z,100.00
2023-03-27T09:31:36.244Z,100.00
2023-03-27T09:34:26.032Z,100.00
2023-03-27T09:37:10.022Z,100.00
2023-03-27T09:40:02.255Z,100.00
2023-03-27T09:42:46.964Z,100.00
2023-03-27T09:45:16.753Z,100.00
2023-03-27T09:48:02.750Z,100.00
2023-03-27T09:50:55.207Z,100.00
2023-03-27T09:53:36.267Z,100.00
2023-03-27T09:56:16.970Z,100.00
2023-03-27T09:58:52.244Z,100.00
2023-03-27T10:01:38.314Z,100.00
2023-03-27T10:04:31.589Z,100.00
2023-03-27T10:07:14.859Z,100.00
2023-03-27T10:10:44.051Z,100.00
2023-03-27T10:13:32.029Z,100.00
2023-03-27T10:16:06.035Z,100.00
2023-03-27T10:22:24.237Z,100.00
2023-03-27T10:24:56.204Z,100.00
2023-03-27T10:31:08.684Z,100.00
2023-03-27T10:33:53.971Z,100.00
2023-03-27T10:36:54.124Z,100.00
2023-03-27T10:39:58.528Z,100.00
2023-03-27T10:42:52.923Z,100.00
2023-03-27T10:45:24.250Z,100.00
2023-03-27T10:48:51.096Z,100.00
2023-03-27T10:51:57.565Z,100.00
2023-03-27T10:55:12.695Z,100.00
2023-03-27T10:57:50.591Z,100.00
2023-03-27T11:00:35.089Z,100.00
2023-03-27T11:03:31.751Z,100.00
2023-03-27T11:06:27.288Z,100.00
2023-03-27T11:09:24.314Z,100.00
2023-03-27T11:12:20.358Z,100.00
2023-03-27T11:15:22.359Z,100.00
2023-03-27T11:18:33.671Z,100.00
2023-03-27T11:21:53.387Z,100.00
2023-03-27T11:25:05.372Z,100.00
2023-03-27T11:27:58.924Z,100.00
2023-03-27T11:30:58.774Z,100.00
2023-03-27T11:34:28.842Z,100.00
2023-03-27T11:38:00.786Z,100.00
2023-03-27T11:40:53.476Z,100.00
2023-03-27T11:43:25.841Z,100.00
2023-03-27T11:46:25.865Z,100.00
2023-03-27T11:49:44.293Z,100.00
2023-03-27T11:56:21.388Z,100.00
2023-03-27T12:02:43.051Z,100.00
2023-03-27T12:06:01.342Z,100.00
2023-03-27T12:08:51.078Z,100.00
2023-03-27T12:11:37.406Z,100.00
2023-03-27T12:14:40.153Z,100.00
2023-03-27T12:17:45.663Z,100.00
2023-03-27T12:23:56.681Z,100.00
2023-03-27T12:26:49.147Z,100.00
2023-03-27T12:30:16.224Z,100.00
2023-03-27T12:33:33.748Z,100.00
2023-03-27T12:36:16.582Z,100.00
2023-03-27T12:38:50.374Z,100.00
2023-03-27T12:41:36.252Z,100.00
2023-03-27T12:44:21.998Z,100.00
2023-03-27T12:47:27.285Z,100.00
2023-03-27T12:50:40.437Z,100.00
2023-03-27T12:53:45.138Z,100.00
2023-03-27T12:56:24.577Z,100.00
2023-03-27T13:02:02.483Z,100.00
2023-03-27T13:04:54.186Z,92.37
2023-03-27T13:07:53.484Z,100.00
2023-03-27T13:11:08.270Z,100.00
2023-03-27T13:14:00.252Z,100.00
2023-03-27T13:16:50.397Z,100.00
2023-03-27T13:19:47.041Z,61.75
2023-03-27T13:22:37.022Z,46.01
2023-03-27T13:25:33.082Z,37.47
2023-03-27T13:28:27.978Z,39.19
2023-03-27T13:31:13.818Z,37.92
2023-03-27T13:34:22.871Z,36.10
2023-03-27T13:37:05.865Z,40.21
2023-03-27T13:42:36.612Z,37.63
2023-03-27T13:45:26.540Z,39.92
2023-03-27T13:48:44.000Z,40.60
2023-03-27T13:52:15.949Z,37.36
2023-03-27T14:02:41.829Z,37.70
2023-03-27T14:05:47.280Z,35.71
2023-03-27T14:08:35.550Z,35.59
2023-03-27T14:12:03.541Z,36.40
2023-03-27T14:15:43.360Z,36.39
2023-03-27T14:19:00.360Z,38.06
2023-03-27T14:21:38.901Z,37.76
2023-03-27T14:24:25.318Z,37.06
2023-03-27T14:27:07.583Z,36.69
2023-03-27T14:29:48.622Z,37.30
2023-03-27T14:32:34.756Z,35.90
2023-03-27T14:35:12.186Z,38.18
2023-03-27T14:37:57.036Z,38.26
2023-03-27T14:40:49.944Z,36.50
2023-03-27T14:43:35.834Z,37.17
2023-03-27T14:46:17.755Z,39.24
2023-03-27T14:48:51.577Z,37.91
2023-03-27T14:51:27.560Z,39.44
2023-03-27T14:54:05.034Z,41.13
2023-03-27T14:56:49.722Z,39.84
2023-03-27T14:59:47.854Z,36.74
2023-03-27T15:02:30.612Z,36.85
2023-03-27T15:05:16.027Z,36.63
2023-03-27T15:07:49.690Z,38.22
2023-03-27T15:10:41.259Z,37.36
2023-03-27T15:13:16.967Z,36.18
2023-03-27T15:15:50.923Z,36.19
2023-03-27T15:18:24.862Z,36.92
2023-03-27T15:20:56.040Z,34.51
2023-03-27T15:23:50.499Z,34.57
2023-03-27T15:26:34.111Z,35.50
2023-03-27T15:29:34.146Z,35.40
2023-03-27T15:32:14.638Z,37.16
2023-03-27T15:35:04.006Z,38.46
2023-03-27T15:37:35.053Z,36.67
2023-03-27T15:40:10.903Z,37.21
2023-03-27T15:43:23.371Z,38.12
2023-03-27T15:46:15.626Z,36.95
2023-03-27T15:48:56.587Z,35.76
2023-03-27T15:51:35.441Z,37.54
2023-03-27T15:54:24.948Z,39.45
2023-03-27T15:57:10.674Z,36.83
2023-03-27T15:59:53.578Z,36.29
2023-03-27T16:02:28.964Z,36.13
2023-03-27T16:04:59.361Z,35.36
2023-03-27T16:07:46.597Z,34.88
2023-03-27T16:13:02.768Z,36.13
2023-03-27T16:16:03.304Z,37.11
2023-03-27T16:18:39.226Z,37.16
2023-03-27T16:21:16.370Z,35.84
2023-03-27T16:23:46.680Z,34.95
2023-03-27T16:26:21.246Z,37.88
2023-03-27T16:28:50.703Z,36.15
2023-03-27T16:31:20.259Z,36.32
2023-03-27T16:33:50.754Z,37.60
2023-03-27T16:36:41.600Z,35.42
2023-03-27T16:39:16.263Z,38.05
2023-03-27T16:41:49.531Z,34.76
2023-03-27T16:44:17.254Z,35.38
2023-03-27T16:46:53.394Z,34.81
2023-03-27T16:49:37.461Z,35.55
2023-03-27T16:52:06.854Z,36.42
2023-03-27T16:54:40.163Z,35.06
2023-03-27T16:57:15.837Z,36.04
2023-03-27T16:59:47.588Z,36.74
2023-03-27T17:02:19.150Z,36.40
2023-03-27T17:04:48.651Z,35.40
2023-03-27T17:07:18.118Z,36.65
2023-03-27T17:09:46.490Z,36.61
2023-03-27T17:12:16.476Z,36.24
2023-03-27T17:14:48.270Z,38.37
2023-03-27T17:17:18.898Z,37.89
2023-03-27T17:20:06.810Z,38.48
2023-03-27T17:22:39.047Z,36.29
2023-03-27T17:25:18.468Z,37.96
2023-03-27T17:27:51.353Z,39.33
2023-03-27T17:30:36.690Z,38.98
2023-03-27T17:33:11.231Z,43.36
2023-03-27T17:35:46.640Z,45.13
2023-03-27T17:38:31.915Z,45.29
2023-03-27T17:40:59.594Z,46.58
2023-03-27T17:43:37.269Z,46.59
2023-03-27T17:46:14.894Z,49.16
2023-03-27T17:48:47.718Z,50.72
2023-03-27T17:51:27.390Z,50.49
2023-03-27T17:53:57.885Z,49.55
2023-03-27T17:56:32.689Z,51.95
2023-03-27T17:59:01.140Z,58.44
2023-03-27T18:01:29.965Z,70.39
2023-03-27T18:04:05.781Z,70.75
2023-03-27T18:06:41.301Z,85.61
2023-03-27T18:09:25.065Z,68.96
2023-03-27T18:12:03.490Z,100.00
2023-03-27T18:14:33.918Z,100.00
2023-03-27T18:17:10.427Z,100.00
2023-03-27T18:19:47.561Z,100.00
2023-03-27T18:22:27.449Z,83.25
2023-03-27T18:25:10.122Z,82.08
2023-03-27T18:27:41.139Z,83.87
2023-03-27T18:30:22.328Z,78.84
2023-03-27T18:32:52.967Z,64.27
2023-03-27T18:35:24.537Z,49.38
2023-03-27T18:37:56.553Z,40.91
2023-03-27T18:40:27.141Z,40.66
2023-03-27T18:43:03.608Z,39.37
2023-03-27T18:45:35.644Z,39.82
2023-03-27T18:48:18.576Z,41.35
2023-03-27T18:51:04.357Z,42.24
2023-03-27T18:53:35.600Z,40.79
2023-03-27T18:56:15.407Z,42.80
2023-03-27T18:58:48.173Z,47.64
2023-03-27T19:01:21.462Z,60.68
2023-03-27T19:03:53.158Z,60.87
2023-03-27T19:06:27.481Z,54.78
2023-03-27T19:09:08.812Z,61.63
2023-03-27T19:11:46.633Z,81.90
2023-03-27T19:14:38.083Z,54.94
2023-03-27T19:20:48.310Z,58.11
2023-03-27T19:23:47.715Z,90.34
2023-03-27T19:26:19.549Z,100.00
2023-03-27T19:28:52.827Z,85.69
2023-03-27T19:31:23.523Z,100.00
2023-03-27T19:36:59.982Z,100.00
2023-03-27T19:39:28.164Z,100.00
2023-03-27T19:42:01.493Z,100.00
2023-03-27T19:44:39.556Z,100.00
2023-03-27T19:47:22.372Z,100.00
2023-03-27T19:49:50.211Z,100.00
2023-03-27T19:52:42.258Z,100.00
2023-03-27T19:55:18.686Z,100.00
2023-03-27T19:57:52.390Z,100.00
2023-03-27T20:00:31.610Z,100.00
2023-03-27T20:03:04.414Z,100.00
2023-03-27T20:05:40.991Z,100.00
2023-03-27T20:08:11.589Z,100.00
2023-03-27T20:10:41.597Z,100.00
2023-03-27T20:13:09.308Z,100.00
2023-03-27T20:15:48.860Z,100.00
2023-03-27T20:18:20.428Z,100.00
2023-03-27T20:20:52.781Z,100.00
2023-03-27T20:23:35.139Z,100.00
2023-03-27T20:26:07.723Z,100.00
2023-03-27T20:28:48.553Z,100.00
2023-03-27T20:31:18.765Z,100.00
2023-03-27T20:34:01.368Z,100.00
2023-03-27T20:36:37.183Z,100.00
2023-03-27T20:39:20.649Z,100.00
2023-03-27T20:41:53.764Z,100.00
2023-03-27T20:44:21.951Z,100.00
2023-03-27T20:46:55.179Z,100.00
2023-03-27T20:49:40.616Z,100.00
2023-03-27T20:52:18.903Z,100.00
2023-03-27T20:55:01.356Z,100.00
2023-03-27T20:57:31.928Z,100.00
2023-03-27T21:00:08.126Z,100.00
2023-03-27T21:02:42.224Z,100.00
2023-03-27T21:05:13.130Z,100.00
2023-03-27T21:07:43.374Z,100.00
2023-03-27T21:10:14.294Z,100.00
2023-03-27T21:12:57.500Z,100.00
2023-03-27T21:15:30.212Z,100.00
2023-03-27T21:18:00.219Z,100.00
2023-03-27T21:20:29.482Z,100.00
2023-03-27T21:25:53.315Z,100.00
2023-03-27T21:28:23.657Z,100.00
2023-03-27T21:30:53.462Z,100.00
2023-03-27T21:33:21.202Z,100.00
2023-03-27T21:35:56.173Z,100.00
2023-03-27T21:38:39.495Z,100.00
2023-03-27T21:41:17.597Z,100.00
2023-03-27T21:43:47.756Z,100.00
2023-03-27T21:46:19.309Z,100.00
2023-03-27T21:48:54.203Z,100.00
2023-03-27T21:51:24.073Z,100.00
2023-03-27T21:53:58.816Z,100.00
2023-03-27T21:56:36.378Z,100.00
2023-03-27T21:59:19.200Z,100.00
2023-03-27T22:01:50.695Z,100.00
2023-03-27T22:04:21.894Z,100.00
2023-03-27T22:06:53.043Z,100.00
2023-03-27T22:09:20.804Z,100.00
2023-03-27T22:11:54.434Z,100.00
2023-03-27T22:14:24.930Z,100.00
2023-03-27T22:17:05.909Z,100.00
2023-03-27T22:19:35.905Z,100.00
2023-03-27T22:22:09.985Z,100.00
2023-03-27T22:24:47.316Z,100.00
2023-03-27T22:27:23.219Z,100.00
2023-03-27T22:29:52.175Z,100.00
2023-03-27T22:32:21.249Z,100.00
2023-03-27T22:35:06.162Z,100.00
2023-03-27T22:37:41.847Z,100.00
2023-03-27T22:40:11.041Z,100.00
2023-03-27T22:42:46.161Z,100.00
2023-03-27T22:45:16.530Z,100.00
2023-03-27T22:47:47.363Z,100.00
2023-03-27T22:50:26.877Z,100.00
2023-03-27T22:53:04.866Z,100.00
2023-03-27T22:55:36.196Z,100.00
2023-03-27T22:58:06.564Z,100.00
2023-03-27T23:00:36.654Z,100.00
2023-03-27T23:03:07.137Z,100.00
2023-03-27T23:05:43.441Z,100.00
2023-03-27T23:08:17.509Z,100.00
2023-03-27T23:10:47.586Z,100.00
2023-03-27T23:13:18.532Z,100.00
2023-03-27T23:15:50.867Z,100.00
2023-03-27T23:18:24.652Z,100.00
2023-03-27T23:21:08.954Z,100.00
2023-03-27T23:23:46.382Z,100.00
2023-03-27T23:26:22.493Z,100.00
2023-03-27T23:28:54.149Z,100.00
2023-03-27T23:31:33.730Z,100.00
2023-03-27T23:34:07.112Z,100.00
2023-03-27T23:36:50.054Z,100.00
2023-03-27T23:39:27.521Z,100.00
2023-03-27T23:41:57.916Z,100.00
2023-03-27T23:44:36.402Z,100.00
2023-03-27T23:47:09.702Z,100.00
2023-03-27T23:49:40.925Z,100.00
2023-03-27T23:52:13.987Z,100.00
2023-03-27T23:57:30.476Z,100.00
2023-03-27T23:59:58.172Z,100.00
